sensor_id;sensor_type;location;lat;lon;timestamp;P1;durP1;ratioP1;P2;durP2;ratioP2
52564;SDS011;38460;53.106;7.004;2022-09-29T00:02:17;7.10;;;5.10;;
52564;SDS011;38460;53.106;7.004;2022-09-29T00:04:42;5.35;;;4.05;;
52564;SDS011;38460;53.106;7.004;2022-09-29T00:07:08;5.10;;;4.43;;
52564;SDS011;38460;53.106;7.004;2022-09-29T00:09:34;7.50;;;4.75;;
52564;SDS011;38460;53.106;7.004;2022-09-29T00:11:59;5.30;;;4.50;;
52564;SDS011;38460;53.106;7.004;2022-09-29T00:14:25;5.82;;;4.25;;
52564;SDS011;38460;53.106;7.004;2022-09-29T00:16:51;8.27;;;3.92;;
52564;SDS011;38460;53.106;7.004;2022-09-29T00:19:17;6.40;;;4.32;;
52564;SDS011;38460;53.106;7.004;2022-09-29T00:21:43;5.70;;;4.28;;
52564;SDS011;38460;53.106;7.004;2022-09-29T00:24:09;6.10;;;4.25;;
52564;SDS011;38460;53.106;7.004;2022-09-29T00:26:35;6.07;;;4.00;;
52564;SDS011;38460;53.106;7.004;2022-09-29T00:29:01;4.97;;;4.47;;
52564;SDS011;38460;53.106;7.004;2022-09-29T00:31:28;7.97;;;4.60;;
52564;SDS011;38460;53.106;7.004;2022-09-29T00:33:55;7.10;;;4.50;;
52564;SDS011;38460;53.106;7.004;2022-09-29T00:36:21;6.32;;;5.13;;
52564;SDS011;38460;53.106;7.004;2022-09-29T00:38:48;5.68;;;4.65;;
52564;SDS011;38460;53.106;7.004;2022-09-29T00:41:19;5.43;;;4.32;;
52564;SDS011;38460;53.106;7.004;2022-09-29T00:46:24;6.43;;;4.60;;
52564;SDS011;38460;53.106;7.004;2022-09-29T00:51:49;13.23;;;5.88;;
52564;SDS011;38460;53.106;7.004;2022-09-29T00:54:20;17.05;;;5.65;;
52564;SDS011;38460;53.106;7.004;2022-09-29T00:56:53;5.43;;;4.60;;
52564;SDS011;38460;53.106;7.004;2022-09-29T00:59:26;5.22;;;4.30;;
52564;SDS011;38460;53.106;7.004;2022-09-29T01:01:58;41.78;;;7.45;;
52564;SDS011;38460;53.106;7.004;2022-09-29T01:04:24;6.22;;;4.15;;
52564;SDS011;38460;53.106;7.004;2022-09-29T01:06:52;29.02;;;6.68;;
52564;SDS011;38460;53.106;7.004;2022-09-29T01:09:32;33.47;;;6.38;;
52564;SDS011;38460;53.106;7.004;2022-09-29T01:12:01;33.45;;;6.15;;
52564;SDS011;38460;53.106;7.004;2022-09-29T01:14:28;13.85;;;5.00;;
52564;SDS011;38460;53.106;7.004;2022-09-29T01:16:55;9.32;;;4.65;;
52564;SDS011;38460;53.106;7.004;2022-09-29T01:19:38;10.88;;;4.85;;
52564;SDS011;38460;53.106;7.004;2022-09-29T01:31:11;5.18;;;3.83;;
52564;SDS011;38460;53.106;7.004;2022-09-29T01:34:27;4.63;;;3.50;;
52564;SDS011;38460;53.106;7.004;2022-09-29T01:39:21;20.50;;;6.07;;
52564;SDS011;38460;53.106;7.004;2022-09-29T01:44:34;4.95;;;4.10;;
52564;SDS011;38460;53.106;7.004;2022-09-29T01:49:35;8.90;;;4.43;;
52564;SDS011;38460;53.106;7.004;2022-09-29T01:52:12;31.77;;;6.90;;
52564;SDS011;38460;53.106;7.004;2022-09-29T01:57:14;16.33;;;5.80;;
52564;SDS011;38460;53.106;7.004;2022-09-29T02:00:02;37.42;;;8.52;;
52564;SDS011;38460;53.106;7.004;2022-09-29T02:02:39;41.42;;;7.68;;
52564;SDS011;38460;53.106;7.004;2022-09-29T02:05:07;45.72;;;8.52;;
52564;SDS011;38460;53.106;7.004;2022-09-29T02:07:40;29.55;;;6.88;;
52564;SDS011;38460;53.106;7.004;2022-09-29T02:10:11;56.63;;;8.85;;
52564;SDS011;38460;53.106;7.004;2022-09-29T02:12:42;10.32;;;4.90;;
52564;SDS011;38460;53.106;7.004;2022-09-29T02:15:11;13.45;;;5.88;;
52564;SDS011;38460;53.106;7.004;2022-09-29T02:17:42;16.80;;;5.20;;
52564;SDS011;38460;53.106;7.004;2022-09-29T02:20:11;40.17;;;7.57;;
52564;SDS011;38460;53.106;7.004;2022-09-29T02:22:38;73.80;;;10.48;;
52564;SDS011;38460;53.106;7.004;2022-09-29T02:25:05;50.97;;;9.43;;
52564;SDS011;38460;53.106;7.004;2022-09-29T02:27:35;36.30;;;6.65;;
52564;SDS011;38460;53.106;7.004;2022-09-29T02:30:01;50.55;;;8.15;;
52564;SDS011;38460;53.106;7.004;2022-09-29T02:32:27;10.45;;;5.57;;
52564;SDS011;38460;53.106;7.004;2022-09-29T02:34:55;21.63;;;6.43;;
52564;SDS011;38460;53.106;7.004;2022-09-29T02:37:26;12.30;;;5.55;;
52564;SDS011;38460;53.106;7.004;2022-09-29T02:43:10;6.90;;;4.63;;
52564;SDS011;38460;53.106;7.004;2022-09-29T02:54:18;6.03;;;4.78;;
52564;SDS011;38460;53.106;7.004;2022-09-29T03:00:00;5.93;;;4.95;;
52564;SDS011;38460;53.106;7.004;2022-09-29T03:02:32;5.05;;;4.50;;
52564;SDS011;38460;53.106;7.004;2022-09-29T03:04:58;6.80;;;4.68;;
52564;SDS011;38460;53.106;7.004;2022-09-29T03:07:24;4.85;;;4.10;;
52564;SDS011;38460;53.106;7.004;2022-09-29T03:09:50;5.57;;;4.72;;
52564;SDS011;38460;53.106;7.004;2022-09-29T03:12:15;5.07;;;4.45;;
52564;SDS011;38460;53.106;7.004;2022-09-29T03:14:42;5.45;;;4.32;;
52564;SDS011;38460;53.106;7.004;2022-09-29T03:17:08;4.88;;;4.38;;
52564;SDS011;38460;53.106;7.004;2022-09-29T03:19:34;5.88;;;4.57;;
52564;SDS011;38460;53.106;7.004;2022-09-29T03:22:00;5.40;;;4.88;;
52564;SDS011;38460;53.106;7.004;2022-09-29T03:24:25;5.28;;;4.72;;
52564;SDS011;38460;53.106;7.004;2022-09-29T03:26:51;6.55;;;4.88;;
52564;SDS011;38460;53.106;7.004;2022-09-29T03:29:17;7.05;;;4.97;;
52564;SDS011;38460;53.106;7.004;2022-09-29T03:31:43;11.77;;;6.18;;
52564;SDS011;38460;53.106;7.004;2022-09-29T03:34:08;65.05;;;10.35;;
52564;SDS011;38460;53.106;7.004;2022-09-29T03:36:34;41.78;;;8.43;;
52564;SDS011;38460;53.106;7.004;2022-09-29T03:38:59;44.70;;;7.85;;
52564;SDS011;38460;53.106;7.004;2022-09-29T03:41:25;68.35;;;9.98;;
52564;SDS011;38460;53.106;7.004;2022-09-29T03:43:51;60.70;;;8.35;;
52564;SDS011;38460;53.106;7.004;2022-09-29T03:46:17;18.65;;;6.03;;
52564;SDS011;38460;53.106;7.004;2022-09-29T03:48:43;44.58;;;8.68;;
52564;SDS011;38460;53.106;7.004;2022-09-29T03:51:08;8.95;;;4.80;;
52564;SDS011;38460;53.106;7.004;2022-09-29T03:53:34;11.85;;;5.15;;
52564;SDS011;38460;53.106;7.004;2022-09-29T03:56:01;14.15;;;5.60;;
52564;SDS011;38460;53.106;7.004;2022-09-29T03:58:27;22.05;;;5.57;;
52564;SDS011;38460;53.106;7.004;2022-09-29T04:00:53;27.48;;;5.90;;
52564;SDS011;38460;53.106;7.004;2022-09-29T04:03:19;9.95;;;5.05;;
52564;SDS011;38460;53.106;7.004;2022-09-29T04:05:45;19.63;;;5.97;;
52564;SDS011;38460;53.106;7.004;2022-09-29T04:08:12;28.55;;;6.65;;
52564;SDS011;38460;53.106;7.004;2022-09-29T04:10:38;10.40;;;5.07;;
52564;SDS011;38460;53.106;7.004;2022-09-29T04:13:05;26.20;;;6.30;;
52564;SDS011;38460;53.106;7.004;2022-09-29T04:15:32;19.63;;;6.00;;
52564;SDS011;38460;53.106;7.004;2022-09-29T04:17:57;10.20;;;5.28;;
52564;SDS011;38460;53.106;7.004;2022-09-29T04:20:24;12.40;;;5.35;;
52564;SDS011;38460;53.106;7.004;2022-09-29T04:22:49;14.90;;;5.97;;
52564;SDS011;38460;53.106;7.004;2022-09-29T04:25:15;35.47;;;7.60;;
52564;SDS011;38460;53.106;7.004;2022-09-29T04:27:41;31.83;;;7.88;;
52564;SDS011;38460;53.106;7.004;2022-09-29T04:30:07;24.95;;;6.53;;
52564;SDS011;38460;53.106;7.004;2022-09-29T04:32:33;19.33;;;6.70;;
52564;SDS011;38460;53.106;7.004;2022-09-29T04:34:59;29.25;;;7.25;;
52564;SDS011;38460;53.106;7.004;2022-09-29T04:37:25;14.93;;;5.68;;
52564;SDS011;38460;53.106;7.004;2022-09-29T04:39:52;16.88;;;6.38;;
52564;SDS011;38460;53.106;7.004;2022-09-29T04:42:18;10.30;;;5.38;;
52564;SDS011;38460;53.106;7.004;2022-09-29T04:44:44;21.60;;;6.10;;
52564;SDS011;38460;53.106;7.004;2022-09-29T04:47:10;31.25;;;6.57;;
52564;SDS011;38460;53.106;7.004;2022-09-29T04:49:36;19.35;;;6.00;;
52564;SDS011;38460;53.106;7.004;2022-09-29T04:52:02;51.72;;;7.03;;
52564;SDS011;38460;53.106;7.004;2022-09-29T04:54:34;103.97;;;10.18;;
52564;SDS011;38460;53.106;7.004;2022-09-29T04:56:59;59.08;;;7.72;;
52564;SDS011;38460;53.106;7.004;2022-09-29T04:59:28;48.83;;;7.20;;
52564;SDS011;38460;53.106;7.004;2022-09-29T05:01:54;38.80;;;7.43;;
52564;SDS011;38460;53.106;7.004;2022-09-29T05:04:20;33.25;;;7.18;;
52564;SDS011;38460;53.106;7.004;2022-09-29T05:06:45;39.22;;;7.18;;
52564;SDS011;38460;53.106;7.004;2022-09-29T05:09:11;46.38;;;7.15;;
52564;SDS011;38460;53.106;7.004;2022-09-29T05:11:37;39.85;;;7.00;;
52564;SDS011;38460;53.106;7.004;2022-09-29T05:14:03;19.02;;;6.55;;
52564;SDS011;38460;53.106;7.004;2022-09-29T05:16:29;15.95;;;5.93;;
52564;SDS011;38460;53.106;7.004;2022-09-29T05:18:55;16.98;;;6.65;;
52564;SDS011;38460;53.106;7.004;2022-09-29T05:21:21;12.23;;;6.35;;
52564;SDS011;38460;53.106;7.004;2022-09-29T05:23:47;20.67;;;6.60;;
52564;SDS011;38460;53.106;7.004;2022-09-29T05:26:13;6.25;;;5.38;;
52564;SDS011;38460;53.106;7.004;2022-09-29T05:28:42;7.03;;;5.68;;
52564;SDS011;38460;53.106;7.004;2022-09-29T05:31:09;13.90;;;6.78;;
52564;SDS011;38460;53.106;7.004;2022-09-29T05:33:35;10.30;;;6.13;;
52564;SDS011;38460;53.106;7.004;2022-09-29T05:36:08;9.07;;;5.65;;
52564;SDS011;38460;53.106;7.004;2022-09-29T05:38:35;8.63;;;6.15;;
52564;SDS011;38460;53.106;7.004;2022-09-29T05:41:03;12.77;;;7.05;;
52564;SDS011;38460;53.106;7.004;2022-09-29T05:43:34;7.72;;;5.43;;
52564;SDS011;38460;53.106;7.004;2022-09-29T05:46:00;7.55;;;5.85;;
52564;SDS011;38460;53.106;7.004;2022-09-29T05:48:30;11.73;;;6.32;;
52564;SDS011;38460;53.106;7.004;2022-09-29T05:50:57;10.98;;;7.35;;
52564;SDS011;38460;53.106;7.004;2022-09-29T05:53:31;9.27;;;7.00;;
52564;SDS011;38460;53.106;7.004;2022-09-29T05:55:57;9.15;;;7.88;;
52564;SDS011;38460;53.106;7.004;2022-09-29T05:58:23;8.80;;;7.40;;
52564;SDS011;38460;53.106;7.004;2022-09-29T06:00:48;8.95;;;7.70;;
52564;SDS011;38460;53.106;7.004;2022-09-29T06:03:14;8.13;;;6.85;;
52564;SDS011;38460;53.106;7.004;2022-09-29T06:05:40;8.48;;;6.90;;
52564;SDS011;38460;53.106;7.004;2022-09-29T06:08:06;8.52;;;6.97;;
52564;SDS011;38460;53.106;7.004;2022-09-29T06:10:32;8.38;;;7.15;;
52564;SDS011;38460;53.106;7.004;2022-09-29T06:12:58;7.78;;;6.78;;
52564;SDS011;38460;53.106;7.004;2022-09-29T06:15:25;8.02;;;6.93;;
52564;SDS011;38460;53.106;7.004;2022-09-29T06:17:54;6.97;;;6.28;;
52564;SDS011;38460;53.106;7.004;2022-09-29T06:20:24;7.00;;;6.18;;
52564;SDS011;38460;53.106;7.004;2022-09-29T06:22:53;7.57;;;6.80;;
52564;SDS011;38460;53.106;7.004;2022-09-29T06:25:19;7.85;;;6.95;;
52564;SDS011;38460;53.106;7.004;2022-09-29T06:27:45;10.07;;;8.48;;
52564;SDS011;38460;53.106;7.004;2022-09-29T06:30:11;8.30;;;7.50;;
52564;SDS011;38460;53.106;7.004;2022-09-29T06:32:38;9.32;;;8.20;;
52564;SDS011;38460;53.106;7.004;2022-09-29T06:35:04;7.93;;;7.03;;
52564;SDS011;38460;53.106;7.004;2022-09-29T06:37:49;8.68;;;7.72;;
52564;SDS011;38460;53.106;7.004;2022-09-29T06:40:17;9.77;;;8.60;;
52564;SDS011;38460;53.106;7.004;2022-09-29T06:42:45;8.77;;;7.85;;
52564;SDS011;38460;53.106;7.004;2022-09-29T06:45:11;10.63;;;8.55;;
52564;SDS011;38460;53.106;7.004;2022-09-29T06:47:37;10.00;;;8.93;;
52564;SDS011;38460;53.106;7.004;2022-09-29T06:50:03;9.27;;;7.78;;
52564;SDS011;38460;53.106;7.004;2022-09-29T06:52:31;10.30;;;9.00;;
52564;SDS011;38460;53.106;7.004;2022-09-29T06:54:56;12.23;;;9.18;;
52564;SDS011;38460;53.106;7.004;2022-09-29T06:57:22;13.60;;;10.40;;
52564;SDS011;38460;53.106;7.004;2022-09-29T06:59:48;10.85;;;8.52;;
52564;SDS011;38460;53.106;7.004;2022-09-29T07:02:14;10.48;;;7.70;;
52564;SDS011;38460;53.106;7.004;2022-09-29T07:04:40;11.73;;;9.35;;
52564;SDS011;38460;53.106;7.004;2022-09-29T07:07:06;10.05;;;9.05;;
52564;SDS011;38460;53.106;7.004;2022-09-29T07:09:32;12.90;;;9.65;;
52564;SDS011;38460;53.106;7.004;2022-09-29T07:11:58;14.32;;;11.15;;
52564;SDS011;38460;53.106;7.004;2022-09-29T07:14:23;12.68;;;10.05;;
52564;SDS011;38460;53.106;7.004;2022-09-29T07:16:50;12.00;;;9.88;;
52564;SDS011;38460;53.106;7.004;2022-09-29T07:19:16;13.80;;;10.77;;
52564;SDS011;38460;53.106;7.004;2022-09-29T07:21:44;15.45;;;12.65;;
52564;SDS011;38460;53.106;7.004;2022-09-29T07:24:10;13.52;;;11.18;;
52564;SDS011;38460;53.106;7.004;2022-09-29T07:26:37;15.88;;;12.82;;
52564;SDS011;38460;53.106;7.004;2022-09-29T07:29:02;14.10;;;11.50;;
52564;SDS011;38460;53.106;7.004;2022-09-29T07:31:28;17.55;;;13.60;;
52564;SDS011;38460;53.106;7.004;2022-09-29T07:33:55;15.68;;;13.00;;
52564;SDS011;38460;53.106;7.004;2022-09-29T07:36:21;18.45;;;13.48;;
52564;SDS011;38460;53.106;7.004;2022-09-29T07:38:47;15.02;;;12.40;;
52564;SDS011;38460;53.106;7.004;2022-09-29T07:41:15;15.85;;;12.93;;
52564;SDS011;38460;53.106;7.004;2022-09-29T07:43:42;18.27;;;13.73;;
52564;SDS011;38460;53.106;7.004;2022-09-29T07:46:08;19.40;;;14.40;;
52564;SDS011;38460;53.106;7.004;2022-09-29T07:48:35;20.77;;;15.02;;
52564;SDS011;38460;53.106;7.004;2022-09-29T07:51:02;16.27;;;12.98;;
52564;SDS011;38460;53.106;7.004;2022-09-29T07:53:34;20.77;;;16.27;;
52564;SDS011;38460;53.106;7.004;2022-09-29T07:58:34;18.42;;;15.02;;
52564;SDS011;38460;53.106;7.004;2022-09-29T08:01:01;18.80;;;15.45;;
52564;SDS011;38460;53.106;7.004;2022-09-29T08:03:30;21.00;;;16.05;;
52564;SDS011;38460;53.106;7.004;2022-09-29T08:05:56;21.45;;;15.85;;
52564;SDS011;38460;53.106;7.004;2022-09-29T08:08:23;25.88;;;18.30;;
52564;SDS011;38460;53.106;7.004;2022-09-29T08:10:49;20.63;;;16.65;;
52564;SDS011;38460;53.106;7.004;2022-09-29T08:13:15;20.00;;;16.05;;
52564;SDS011;38460;53.106;7.004;2022-09-29T08:15:41;27.15;;;19.55;;
52564;SDS011;38460;53.106;7.004;2022-09-29T08:18:07;32.50;;;20.52;;
52564;SDS011;38460;53.106;7.004;2022-09-29T08:20:34;26.50;;;19.63;;
52564;SDS011;38460;53.106;7.004;2022-09-29T08:23:00;25.27;;;19.88;;
52564;SDS011;38460;53.106;7.004;2022-09-29T08:25:26;26.33;;;19.52;;
52564;SDS011;38460;53.106;7.004;2022-09-29T08:27:52;28.30;;;20.00;;
52564;SDS011;38460;53.106;7.004;2022-09-29T08:30:18;27.92;;;19.63;;
52564;SDS011;38460;53.106;7.004;2022-09-29T08:32:49;29.50;;;21.02;;
52564;SDS011;38460;53.106;7.004;2022-09-29T08:35:15;25.65;;;20.00;;
52564;SDS011;38460;53.106;7.004;2022-09-29T08:37:41;29.30;;;20.45;;
52564;SDS011;38460;53.106;7.004;2022-09-29T08:40:07;28.00;;;19.77;;
52564;SDS011;38460;53.106;7.004;2022-09-29T08:45:04;26.45;;;19.13;;
52564;SDS011;38460;53.106;7.004;2022-09-29T08:47:36;25.40;;;18.52;;
52564;SDS011;38460;53.106;7.004;2022-09-29T08:52:52;24.90;;;18.05;;
52564;SDS011;38460;53.106;7.004;2022-09-29T08:55:33;25.40;;;18.02;;
52564;SDS011;38460;53.106;7.004;2022-09-29T08:58:09;25.15;;;17.27;;
52564;SDS011;38460;53.106;7.004;2022-09-29T09:00:42;22.58;;;16.33;;
52564;SDS011;38460;53.106;7.004;2022-09-29T09:03:20;23.60;;;17.27;;
52564;SDS011;38460;53.106;7.004;2022-09-29T09:08:41;25.63;;;16.55;;
52564;SDS011;38460;53.106;7.004;2022-09-29T09:14:13;22.70;;;15.98;;
52564;SDS011;38460;53.106;7.004;2022-09-29T09:25:17;17.45;;;15.00;;
52564;SDS011;38460;53.106;7.004;2022-09-29T09:30:44;20.77;;;14.93;;
52564;SDS011;38460;53.106;7.004;2022-09-29T09:36:01;16.80;;;12.07;;
52564;SDS011;38460;53.106;7.004;2022-09-29T09:38:44;17.52;;;11.75;;
52564;SDS011;38460;53.106;7.004;2022-09-29T09:41:18;18.10;;;11.98;;
52564;SDS011;38460;53.106;7.004;2022-09-29T09:44:11;15.40;;;10.90;;
52564;SDS011;38460;53.106;7.004;2022-09-29T09:46:51;13.73;;;10.38;;
52564;SDS011;38460;53.106;7.004;2022-09-29T09:49:48;12.38;;;9.98;;
52564;SDS011;38460;53.106;7.004;2022-09-29T09:54:51;15.98;;;10.85;;
52564;SDS011;38460;53.106;7.004;2022-09-29T09:57:37;15.95;;;11.80;;
52564;SDS011;38460;53.106;7.004;2022-09-29T10:00:34;12.68;;;9.05;;
52564;SDS011;38460;53.106;7.004;2022-09-29T10:03:10;14.07;;;10.10;;
52564;SDS011;38460;53.106;7.004;2022-09-29T10:05:38;13.15;;;9.55;;
52564;SDS011;38460;53.106;7.004;2022-09-29T10:10:55;11.70;;;9.23;;
52564;SDS011;38460;53.106;7.004;2022-09-29T10:13:26;9.20;;;7.30;;
52564;SDS011;38460;53.106;7.004;2022-09-29T10:18:38;9.68;;;8.07;;
52564;SDS011;38460;53.106;7.004;2022-09-29T10:23:56;9.50;;;7.53;;
52564;SDS011;38460;53.106;7.004;2022-09-29T10:26:27;11.15;;;6.43;;
52564;SDS011;38460;53.106;7.004;2022-09-29T10:29:01;8.40;;;6.75;;
52564;SDS011;38460;53.106;7.004;2022-09-29T10:31:41;7.72;;;5.95;;
52564;SDS011;38460;53.106;7.004;2022-09-29T10:34:18;6.57;;;4.68;;
52564;SDS011;38460;53.106;7.004;2022-09-29T10:36:52;6.80;;;4.70;;
52564;SDS011;38460;53.106;7.004;2022-09-29T10:44:54;6.80;;;4.50;;
52564;SDS011;38460;53.106;7.004;2022-09-29T10:47:25;5.90;;;4.13;;
52564;SDS011;38460;53.106;7.004;2022-09-29T10:52:55;7.35;;;4.13;;
52564;SDS011;38460;53.106;7.004;2022-09-29T10:55:23;5.70;;;3.70;;
52564;SDS011;38460;53.106;7.004;2022-09-29T10:57:51;4.45;;;3.35;;
52564;SDS011;38460;53.106;7.004;2022-09-29T11:00:23;3.75;;;1.90;;
52564;SDS011;38460;53.106;7.004;2022-09-29T11:02:51;5.03;;;3.00;;
52564;SDS011;38460;53.106;7.004;2022-09-29T11:05:22;4.60;;;2.70;;
52564;SDS011;38460;53.106;7.004;2022-09-29T11:07:49;3.42;;;2.20;;
52564;SDS011;38460;53.106;7.004;2022-09-29T11:10:26;5.63;;;2.83;;
52564;SDS011;38460;53.106;7.004;2022-09-29T11:12:53;3.42;;;2.65;;
52564;SDS011;38460;53.106;7.004;2022-09-29T11:15:27;4.57;;;2.22;;
52564;SDS011;38460;53.106;7.004;2022-09-29T11:18:21;2.95;;;2.00;;
52564;SDS011;38460;53.106;7.004;2022-09-29T11:21:05;2.95;;;1.85;;
52564;SDS011;38460;53.106;7.004;2022-09-29T11:41:12;2.25;;;1.50;;
52564;SDS011;38460;53.106;7.004;2022-09-29T11:43:45;2.78;;;1.83;;
52564;SDS011;38460;53.106;7.004;2022-09-29T11:48:57;2.97;;;1.88;;
52564;SDS011;38460;53.106;7.004;2022-09-29T12:13:35;2.15;;;1.10;;
52564;SDS011;38460;53.106;7.004;2022-09-29T12:16:16;1.35;;;0.90;;
52564;SDS011;38460;53.106;7.004;2022-09-29T12:21:14;1.95;;;1.10;;
52564;SDS011;38460;53.106;7.004;2022-09-29T12:23:45;2.05;;;1.00;;
52564;SDS011;38460;53.106;7.004;2022-09-29T12:26:19;1.42;;;0.73;;
52564;SDS011;38460;53.106;7.004;2022-09-29T12:28:55;1.33;;;0.77;;
52564;SDS011;38460;53.106;7.004;2022-09-29T12:31:35;1.55;;;0.80;;
52564;SDS011;38460;53.106;7.004;2022-09-29T12:34:21;1.55;;;0.90;;
52564;SDS011;38460;53.106;7.004;2022-09-29T12:45:50;1.30;;;0.50;;
52564;SDS011;38460;53.106;7.004;2022-09-29T12:51:44;1.60;;;0.70;;
52564;SDS011;38460;53.106;7.004;2022-09-29T12:54:24;1.60;;;0.70;;
52564;SDS011;38460;53.106;7.004;2022-09-29T13:21:15;6.85;;;1.52;;
52564;SDS011;38460;53.106;7.004;2022-09-29T13:26:57;2.42;;;0.90;;
52564;SDS011;38460;53.106;7.004;2022-09-29T13:29:43;3.20;;;1.40;;
52564;SDS011;38460;53.106;7.004;2022-09-29T13:32:14;4.80;;;1.20;;
52564;SDS011;38460;53.106;7.004;2022-09-29T13:34:45;4.03;;;1.10;;
52564;SDS011;38460;53.106;7.004;2022-09-29T13:37:17;3.05;;;1.27;;
52564;SDS011;38460;53.106;7.004;2022-09-29T13:39:52;2.38;;;1.13;;
52564;SDS011;38460;53.106;7.004;2022-09-29T13:47:55;2.88;;;1.00;;
52564;SDS011;38460;53.106;7.004;2022-09-29T13:50:44;2.28;;;0.88;;
52564;SDS011;38460;53.106;7.004;2022-09-29T13:58:30;1.65;;;1.00;;
52564;SDS011;38460;53.106;7.004;2022-09-29T14:01:06;2.95;;;1.85;;
52564;SDS011;38460;53.106;7.004;2022-09-29T14:03:38;3.17;;;1.40;;
52564;SDS011;38460;53.106;7.004;2022-09-29T14:06:18;2.80;;;1.60;;
52564;SDS011;38460;53.106;7.004;2022-09-29T14:08:52;1.98;;;1.33;;
52564;SDS011;38460;53.106;7.004;2022-09-29T14:11:32;2.60;;;1.40;;
52564;SDS011;38460;53.106;7.004;2022-09-29T14:14:12;3.78;;;1.30;;
52564;SDS011;38460;53.106;7.004;2022-09-29T14:16:43;2.47;;;1.40;;
52564;SDS011;38460;53.106;7.004;2022-09-29T14:22:03;2.17;;;1.40;;
52564;SDS011;38460;53.106;7.004;2022-09-29T14:24:47;3.05;;;1.38;;
52564;SDS011;38460;53.106;7.004;2022-09-29T14:27:25;4.32;;;1.85;;
52564;SDS011;38460;53.106;7.004;2022-09-29T14:35:35;3.35;;;1.70;;
52564;SDS011;38460;53.106;7.004;2022-09-29T14:38:23;2.50;;;1.52;;
52564;SDS011;38460;53.106;7.004;2022-09-29T14:43:47;2.33;;;1.63;;
52564;SDS011;38460;53.106;7.004;2022-09-29T14:49:25;3.92;;;2.00;;
52564;SDS011;38460;53.106;7.004;2022-09-29T14:55:27;3.47;;;2.22;;
52564;SDS011;38460;53.106;7.004;2022-09-29T15:01:00;4.53;;;2.88;;
52564;SDS011;38460;53.106;7.004;2022-09-29T15:03:46;4.43;;;3.28;;
52564;SDS011;38460;53.106;7.004;2022-09-29T15:06:23;6.55;;;3.42;;
52564;SDS011;38460;53.106;7.004;2022-09-29T15:09:01;3.90;;;3.30;;
52564;SDS011;38460;53.106;7.004;2022-09-29T15:11:44;4.32;;;2.60;;
52564;SDS011;38460;53.106;7.004;2022-09-29T15:16:49;4.13;;;2.88;;
52564;SDS011;38460;53.106;7.004;2022-09-29T15:27:52;3.80;;;2.40;;
52564;SDS011;38460;53.106;7.004;2022-09-29T15:30:24;2.92;;;2.00;;
52564;SDS011;38460;53.106;7.004;2022-09-29T15:32:51;2.95;;;1.73;;
52564;SDS011;38460;53.106;7.004;2022-09-29T15:35:22;3.58;;;1.95;;
52564;SDS011;38460;53.106;7.004;2022-09-29T15:40:24;3.25;;;1.55;;
52564;SDS011;38460;53.106;7.004;2022-09-29T15:42:51;2.67;;;1.80;;
52564;SDS011;38460;53.106;7.004;2022-09-29T15:45:24;4.70;;;1.90;;
52564;SDS011;38460;53.106;7.004;2022-09-29T15:47:59;3.33;;;1.67;;
52564;SDS011;38460;53.106;7.004;2022-09-29T15:50:26;2.97;;;1.70;;
52564;SDS011;38460;53.106;7.004;2022-09-29T15:52:56;4.10;;;2.03;;
52564;SDS011;38460;53.106;7.004;2022-09-29T15:55:25;5.68;;;2.05;;
52564;SDS011;38460;53.106;7.004;2022-09-29T15:57:51;2.78;;;1.67;;
52564;SDS011;38460;53.106;7.004;2022-09-29T16:05:39;3.97;;;2.30;;
52564;SDS011;38460;53.106;7.004;2022-09-29T16:08:19;3.28;;;1.80;;
52564;SDS011;38460;53.106;7.004;2022-09-29T16:10:52;2.63;;;1.30;;
52564;SDS011;38460;53.106;7.004;2022-09-29T16:13:24;2.70;;;1.65;;
52564;SDS011;38460;53.106;7.004;2022-09-29T16:15:56;3.58;;;1.95;;
52564;SDS011;38460;53.106;7.004;2022-09-29T16:18:25;2.72;;;1.52;;
52564;SDS011;38460;53.106;7.004;2022-09-29T16:20:56;2.17;;;1.40;;
52564;SDS011;38460;53.106;7.004;2022-09-29T16:23:25;2.85;;;2.17;;
52564;SDS011;38460;53.106;7.004;2022-09-29T16:26:15;2.75;;;2.42;;
52564;SDS011;38460;53.106;7.004;2022-09-29T16:31:29;2.65;;;1.60;;
52564;SDS011;38460;53.106;7.004;2022-09-29T16:33:56;3.05;;;1.50;;
52564;SDS011;38460;53.106;7.004;2022-09-29T16:36:30;3.92;;;2.08;;
52564;SDS011;38460;53.106;7.004;2022-09-29T16:39:04;2.40;;;1.50;;
52564;SDS011;38460;53.106;7.004;2022-09-29T16:41:37;3.38;;;1.80;;
52564;SDS011;38460;53.106;7.004;2022-09-29T16:47:19;3.33;;;1.73;;
52564;SDS011;38460;53.106;7.004;2022-09-29T16:49:33;3.78;;;1.83;;
52564;SDS011;38460;53.106;7.004;2022-09-29T16:52:11;3.95;;;2.80;;
52564;SDS011;38460;53.106;7.004;2022-09-29T16:54:51;4.45;;;3.03;;
52564;SDS011;38460;53.106;7.004;2022-09-29T16:59:57;4.70;;;3.40;;
52564;SDS011;38460;53.106;7.004;2022-09-29T17:02:25;4.43;;;3.45;;
52564;SDS011;38460;53.106;7.004;2022-09-29T17:04:51;4.30;;;3.33;;
52564;SDS011;38460;53.106;7.004;2022-09-29T17:07:19;6.63;;;3.47;;
52564;SDS011;38460;53.106;7.004;2022-09-29T17:09:51;5.15;;;3.10;;
52564;SDS011;38460;53.106;7.004;2022-09-29T17:12:20;3.70;;;3.30;;
52564;SDS011;38460;53.106;7.004;2022-09-29T17:14:46;4.90;;;3.30;;
52564;SDS011;38460;53.106;7.004;2022-09-29T17:17:24;3.92;;;3.50;;
52564;SDS011;38460;53.106;7.004;2022-09-29T17:19:51;5.18;;;3.30;;
52564;SDS011;38460;53.106;7.004;2022-09-29T17:27:20;4.50;;;3.80;;
52564;SDS011;38460;53.106;7.004;2022-09-29T17:30:04;6.65;;;4.90;;
52564;SDS011;38460;53.106;7.004;2022-09-29T17:32:31;8.43;;;6.57;;
52564;SDS011;38460;53.106;7.004;2022-09-29T17:34:56;8.55;;;6.43;;
52564;SDS011;38460;53.106;7.004;2022-09-29T17:37:23;10.57;;;7.45;;
52564;SDS011;38460;53.106;7.004;2022-09-29T17:39:48;6.75;;;4.95;;
52564;SDS011;38460;53.106;7.004;2022-09-29T17:42:14;6.50;;;4.50;;
52564;SDS011;38460;53.106;7.004;2022-09-29T17:44:41;5.18;;;3.92;;
52564;SDS011;38460;53.106;7.004;2022-09-29T17:47:14;6.60;;;4.63;;
52564;SDS011;38460;53.106;7.004;2022-09-29T17:49:44;7.60;;;6.43;;
52564;SDS011;38460;53.106;7.004;2022-09-29T17:52:14;6.78;;;6.07;;
52564;SDS011;38460;53.106;7.004;2022-09-29T17:54:43;6.50;;;5.03;;
52564;SDS011;38460;53.106;7.004;2022-09-29T17:57:21;3.47;;;3.00;;
52564;SDS011;38460;53.106;7.004;2022-09-29T17:59:51;2.97;;;2.45;;
52564;SDS011;38460;53.106;7.004;2022-09-29T18:02:17;5.03;;;2.97;;
52564;SDS011;38460;53.106;7.004;2022-09-29T18:04:43;3.00;;;2.35;;
52564;SDS011;38460;53.106;7.004;2022-09-29T18:07:12;3.08;;;2.20;;
52564;SDS011;38460;53.106;7.004;2022-09-29T18:09:39;3.20;;;2.60;;
52564;SDS011;38460;53.106;7.004;2022-09-29T18:12:05;4.20;;;2.75;;
52564;SDS011;38460;53.106;7.004;2022-09-29T18:14:31;3.35;;;2.50;;
52564;SDS011;38460;53.106;7.004;2022-09-29T18:17:00;4.47;;;2.67;;
52564;SDS011;38460;53.106;7.004;2022-09-29T18:19:29;3.50;;;2.50;;
52564;SDS011;38460;53.106;7.004;2022-09-29T18:21:54;3.22;;;2.60;;
52564;SDS011;38460;53.106;7.004;2022-09-29T18:24:21;3.92;;;2.50;;
52564;SDS011;38460;53.106;7.004;2022-09-29T18:26:47;3.70;;;2.55;;
52564;SDS011;38460;53.106;7.004;2022-09-29T18:29:15;4.82;;;3.00;;
52564;SDS011;38460;53.106;7.004;2022-09-29T18:31:43;3.63;;;2.58;;
52564;SDS011;38460;53.106;7.004;2022-09-29T18:34:16;27.23;;;24.33;;
52564;SDS011;38460;53.106;7.004;2022-09-29T18:36:43;122.63;;;94.07;;
52564;SDS011;38460;53.106;7.004;2022-09-29T18:39:09;23.08;;;19.33;;
52564;SDS011;38460;53.106;7.004;2022-09-29T18:41:35;9.02;;;6.35;;
52564;SDS011;38460;53.106;7.004;2022-09-29T18:44:07;6.32;;;4.03;;
52564;SDS011;38460;53.106;7.004;2022-09-29T18:46:39;4.32;;;3.00;;
52564;SDS011;38460;53.106;7.004;2022-09-29T18:49:09;3.58;;;2.38;;
52564;SDS011;38460;53.106;7.004;2022-09-29T18:51:37;4.20;;;2.95;;
52564;SDS011;38460;53.106;7.004;2022-09-29T18:54:03;8.07;;;4.93;;